sensor_id;sensor_type;location;lat;lon;timestamp;P1;durP1;ratioP1;P2;durP2;ratioP2
3747;SDS011;1889;50.058;8.688;2023-06-22T00:01:32;8.93;;;8.07;;
3747;SDS011;1889;50.058;8.688;2023-06-22T00:04:02;8.60;;;7.63;;
3747;SDS011;1889;50.058;8.688;2023-06-22T00:06:31;9.43;;;8.40;;
3747;SDS011;1889;50.058;8.688;2023-06-22T00:09:00;8.70;;;7.80;;
3747;SDS011;1889;50.058;8.688;2023-06-22T00:11:29;10.23;;;9.07;;
3747;SDS011;1889;50.058;8.688;2023-06-22T00:13:59;9.53;;;8.53;;
3747;SDS011;1889;50.058;8.688;2023-06-22T00:16:28;9.17;;;7.47;;
3747;SDS011;1889;50.058;8.688;2023-06-22T00:18:59;8.90;;;8.03;;
3747;SDS011;1889;50.058;8.688;2023-06-22T00:21:29;9.43;;;8.13;;
3747;SDS011;1889;50.058;8.688;2023-06-22T00:23:58;8.17;;;7.17;;
3747;SDS011;1889;50.058;8.688;2023-06-22T00:26:27;8.60;;;7.80;;
3747;SDS011;1889;50.058;8.688;2023-06-22T00:28:56;9.37;;;7.63;;
3747;SDS011;1889;50.058;8.688;2023-06-22T00:31:25;9.00;;;7.87;;
3747;SDS011;1889;50.058;8.688;2023-06-22T00:33:54;8.70;;;8.00;;
3747;SDS011;1889;50.058;8.688;2023-06-22T00:36:23;9.80;;;8.83;;
3747;SDS011;1889;50.058;8.688;2023-06-22T00:38:52;8.40;;;7.60;;
3747;SDS011;1889;50.058;8.688;2023-06-22T00:41:21;8.73;;;7.83;;
3747;SDS011;1889;50.058;8.688;2023-06-22T00:43:50;9.90;;;7.67;;
3747;SDS011;1889;50.058;8.688;2023-06-22T00:46:20;8.47;;;7.67;;
3747;SDS011;1889;50.058;8.688;2023-06-22T00:48:50;9.80;;;7.37;;
3747;SDS011;1889;50.058;8.688;2023-06-22T00:51:22;8.80;;;8.10;;
3747;SDS011;1889;50.058;8.688;2023-06-22T00:53:51;8.73;;;7.93;;
3747;SDS011;1889;50.058;8.688;2023-06-22T00:56:21;9.03;;;7.60;;
3747;SDS011;1889;50.058;8.688;2023-06-22T00:58:51;7.63;;;6.93;;
3747;SDS011;1889;50.058;8.688;2023-06-22T01:01:21;7.83;;;7.03;;
3747;SDS011;1889;50.058;8.688;2023-06-22T01:03:50;8.63;;;7.23;;
3747;SDS011;1889;50.058;8.688;2023-06-22T01:06:21;9.07;;;7.87;;
3747;SDS011;1889;50.058;8.688;2023-06-22T01:09:15;8.37;;;7.30;;
3747;SDS011;1889;50.058;8.688;2023-06-22T01:11:45;8.03;;;6.97;;
3747;SDS011;1889;50.058;8.688;2023-06-22T01:14:18;7.87;;;7.17;;
3747;SDS011;1889;50.058;8.688;2023-06-22T01:16:50;8.27;;;7.47;;
3747;SDS011;1889;50.058;8.688;2023-06-22T01:22:08;8.53;;;7.73;;
3747;SDS011;1889;50.058;8.688;2023-06-22T01:24:48;8.13;;;7.43;;
3747;SDS011;1889;50.058;8.688;2023-06-22T01:30:31;8.50;;;7.70;;
3747;SDS011;1889;50.058;8.688;2023-06-22T01:33:01;11.43;;;8.57;;
3747;SDS011;1889;50.058;8.688;2023-06-22T01:35:33;8.97;;;8.13;;
3747;SDS011;1889;50.058;8.688;2023-06-22T01:38:03;9.77;;;8.87;;
3747;SDS011;1889;50.058;8.688;2023-06-22T01:40:33;10.10;;;9.20;;
3747;SDS011;1889;50.058;8.688;2023-06-22T01:43:04;10.90;;;9.87;;
3747;SDS011;1889;50.058;8.688;2023-06-22T01:45:34;13.10;;;9.73;;
3747;SDS011;1889;50.058;8.688;2023-06-22T01:48:03;11.63;;;10.53;;
3747;SDS011;1889;50.058;8.688;2023-06-22T01:50:53;11.67;;;9.47;;
3747;SDS011;1889;50.058;8.688;2023-06-22T01:53:23;11.13;;;10.03;;
3747;SDS011;1889;50.058;8.688;2023-06-22T01:55:53;10.57;;;9.63;;
3747;SDS011;1889;50.058;8.688;2023-06-22T01:58:23;10.70;;;9.60;;
3747;SDS011;1889;50.058;8.688;2023-06-22T02:01:00;11.10;;;9.90;;
3747;SDS011;1889;50.058;8.688;2023-06-22T02:03:28;13.60;;;11.13;;
3747;SDS011;1889;50.058;8.688;2023-06-22T02:06:01;10.93;;;9.93;;
3747;SDS011;1889;50.058;8.688;2023-06-22T02:08:32;10.97;;;9.97;;
3747;SDS011;1889;50.058;8.688;2023-06-22T02:11:02;11.20;;;10.07;;
3747;SDS011;1889;50.058;8.688;2023-06-22T02:13:33;13.27;;;10.80;;
3747;SDS011;1889;50.058;8.688;2023-06-22T02:16:04;11.67;;;10.57;;
3747;SDS011;1889;50.058;8.688;2023-06-22T02:18:33;11.83;;;10.47;;
3747;SDS011;1889;50.058;8.688;2023-06-22T02:21:03;12.93;;;10.80;;
3747;SDS011;1889;50.058;8.688;2023-06-22T02:23:32;11.67;;;10.50;;
3747;SDS011;1889;50.058;8.688;2023-06-22T02:26:02;11.40;;;10.30;;
3747;SDS011;1889;50.058;8.688;2023-06-22T02:28:32;12.70;;;10.80;;
3747;SDS011;1889;50.058;8.688;2023-06-22T02:31:01;13.50;;;10.33;;
3747;SDS011;1889;50.058;8.688;2023-06-22T02:33:30;12.43;;;10.47;;
3747;SDS011;1889;50.058;8.688;2023-06-22T02:35:59;11.87;;;10.73;;
3747;SDS011;1889;50.058;8.688;2023-06-22T02:38:30;12.00;;;10.90;;
3747;SDS011;1889;50.058;8.688;2023-06-22T02:41:02;11.73;;;10.40;;
3747;SDS011;1889;50.058;8.688;2023-06-22T02:43:31;11.83;;;10.63;;
3747;SDS011;1889;50.058;8.688;2023-06-22T02:46:00;12.57;;;11.07;;
3747;SDS011;1889;50.058;8.688;2023-06-22T02:48:29;11.60;;;10.47;;
3747;SDS011;1889;50.058;8.688;2023-06-22T02:50:58;12.03;;;10.83;;
3747;SDS011;1889;50.058;8.688;2023-06-22T02:53:27;12.97;;;11.00;;
3747;SDS011;1889;50.058;8.688;2023-06-22T02:55:56;12.47;;;11.17;;
3747;SDS011;1889;50.058;8.688;2023-06-22T02:58:25;11.97;;;10.87;;
3747;SDS011;1889;50.058;8.688;2023-06-22T03:00:54;12.10;;;10.97;;
3747;SDS011;1889;50.058;8.688;2023-06-22T03:03:23;12.33;;;11.10;;
3747;SDS011;1889;50.058;8.688;2023-06-22T03:05:53;11.73;;;10.60;;
3747;SDS011;1889;50.058;8.688;2023-06-22T03:08:22;11.13;;;10.00;;
3747;SDS011;1889;50.058;8.688;2023-06-22T03:10:51;11.80;;;10.60;;
3747;SDS011;1889;50.058;8.688;2023-06-22T03:13:20;11.20;;;10.03;;
3747;SDS011;1889;50.058;8.688;2023-06-22T03:15:49;10.90;;;9.70;;
3747;SDS011;1889;50.058;8.688;2023-06-22T03:18:19;11.83;;;10.63;;
3747;SDS011;1889;50.058;8.688;2023-06-22T03:20:49;13.13;;;10.87;;
3747;SDS011;1889;50.058;8.688;2023-06-22T03:23:18;11.57;;;10.47;;
3747;SDS011;1889;50.058;8.688;2023-06-22T03:25:47;12.33;;;10.83;;
3747;SDS011;1889;50.058;8.688;2023-06-22T03:28:16;11.40;;;10.30;;
3747;SDS011;1889;50.058;8.688;2023-06-22T03:30:45;11.50;;;10.50;;
3747;SDS011;1889;50.058;8.688;2023-06-22T03:33:14;12.73;;;11.53;;
3747;SDS011;1889;50.058;8.688;2023-06-22T03:35:43;14.93;;;11.37;;
3747;SDS011;1889;50.058;8.688;2023-06-22T03:38:12;11.03;;;10.03;;
3747;SDS011;1889;50.058;8.688;2023-06-22T03:40:41;11.47;;;10.47;;
3747;SDS011;1889;50.058;8.688;2023-06-22T03:43:11;13.03;;;11.57;;
3747;SDS011;1889;50.058;8.688;2023-06-22T03:45:40;12.00;;;10.90;;
3747;SDS011;1889;50.058;8.688;2023-06-22T03:48:09;12.30;;;11.20;;
3747;SDS011;1889;50.058;8.688;2023-06-22T03:50:38;12.87;;;11.67;;
3747;SDS011;1889;50.058;8.688;2023-06-22T03:53:07;13.07;;;11.77;;
3747;SDS011;1889;50.058;8.688;2023-06-22T03:55:36;13.93;;;12.63;;
3747;SDS011;1889;50.058;8.688;2023-06-22T03:58:05;13.67;;;12.27;;
3747;SDS011;1889;50.058;8.688;2023-06-22T04:00:36;13.27;;;12.07;;
3747;SDS011;1889;50.058;8.688;2023-06-22T04:03:05;12.90;;;11.57;;
3747;SDS011;1889;50.058;8.688;2023-06-22T04:05:34;12.40;;;11.03;;
3747;SDS011;1889;50.058;8.688;2023-06-22T04:08:06;12.57;;;11.43;;
3747;SDS011;1889;50.058;8.688;2023-06-22T04:10:39;13.13;;;11.83;;
3747;SDS011;1889;50.058;8.688;2023-06-22T04:13:08;13.07;;;11.10;;
3747;SDS011;1889;50.058;8.688;2023-06-22T04:15:37;12.17;;;10.97;;
3747;SDS011;1889;50.058;8.688;2023-06-22T04:18:06;12.07;;;10.97;;
3747;SDS011;1889;50.058;8.688;2023-06-22T04:20:35;12.27;;;11.13;;
3747;SDS011;1889;50.058;8.688;2023-06-22T04:23:04;11.67;;;10.50;;
3747;SDS011;1889;50.058;8.688;2023-06-22T04:25:34;11.97;;;10.77;;
3747;SDS011;1889;50.058;8.688;2023-06-22T04:28:03;12.10;;;10.93;;
3747;SDS011;1889;50.058;8.688;2023-06-22T04:30:32;11.97;;;10.77;;
3747;SDS011;1889;50.058;8.688;2023-06-22T04:33:01;12.17;;;11.17;;
3747;SDS011;1889;50.058;8.688;2023-06-22T04:35:30;11.53;;;10.53;;
3747;SDS011;1889;50.058;8.688;2023-06-22T04:37:59;12.77;;;11.57;;
3747;SDS011;1889;50.058;8.688;2023-06-22T04:40:30;12.33;;;11.00;;
3747;SDS011;1889;50.058;8.688;2023-06-22T04:42:59;12.27;;;11.07;;
3747;SDS011;1889;50.058;8.688;2023-06-22T04:45:29;13.20;;;12.00;;
3747;SDS011;1889;50.058;8.688;2023-06-22T04:47:58;13.33;;;12.03;;
3747;SDS011;1889;50.058;8.688;2023-06-22T04:50:28;12.03;;;10.87;;
3747;SDS011;1889;50.058;8.688;2023-06-22T04:52:57;12.40;;;11.30;;
3747;SDS011;1889;50.058;8.688;2023-06-22T04:55:26;11.13;;;10.13;;
3747;SDS011;1889;50.058;8.688;2023-06-22T04:57:55;13.23;;;11.53;;
3747;SDS011;1889;50.058;8.688;2023-06-22T05:00:24;12.97;;;11.87;;
3747;SDS011;1889;50.058;8.688;2023-06-22T05:02:53;16.37;;;11.07;;
3747;SDS011;1889;50.058;8.688;2023-06-22T05:05:24;12.50;;;11.10;;
3747;SDS011;1889;50.058;8.688;2023-06-22T05:07:53;13.10;;;11.87;;
3747;SDS011;1889;50.058;8.688;2023-06-22T05:10:26;11.80;;;10.80;;
3747;SDS011;1889;50.058;8.688;2023-06-22T05:12:55;12.80;;;11.70;;
3747;SDS011;1889;50.058;8.688;2023-06-22T05:15:24;12.83;;;11.43;;
3747;SDS011;1889;50.058;8.688;2023-06-22T05:17:55;11.83;;;10.73;;
3747;SDS011;1889;50.058;8.688;2023-06-22T05:20:25;11.37;;;10.27;;
3747;SDS011;1889;50.058;8.688;2023-06-22T05:22:54;12.77;;;11.53;;
3747;SDS011;1889;50.058;8.688;2023-06-22T05:25:23;12.17;;;11.10;;
3747;SDS011;1889;50.058;8.688;2023-06-22T05:27:52;12.23;;;11.23;;
3747;SDS011;1889;50.058;8.688;2023-06-22T05:30:21;13.57;;;12.10;;
3747;SDS011;1889;50.058;8.688;2023-06-22T05:32:50;12.83;;;11.53;;
3747;SDS011;1889;50.058;8.688;2023-06-22T05:35:19;12.53;;;11.33;;
3747;SDS011;1889;50.058;8.688;2023-06-22T05:37:48;13.27;;;11.90;;
3747;SDS011;1889;50.058;8.688;2023-06-22T05:40:18;12.83;;;11.53;;
3747;SDS011;1889;50.058;8.688;2023-06-22T05:42:47;12.37;;;11.07;;
3747;SDS011;1889;50.058;8.688;2023-06-22T05:45:16;12.17;;;11.07;;
3747;SDS011;1889;50.058;8.688;2023-06-22T05:47:45;12.27;;;11.17;;
3747;SDS011;1889;50.058;8.688;2023-06-22T05:50:14;12.33;;;11.27;;
3747;SDS011;1889;50.058;8.688;2023-06-22T05:52:44;12.03;;;10.90;;
3747;SDS011;1889;50.058;8.688;2023-06-22T05:55:13;12.20;;;11.03;;
3747;SDS011;1889;50.058;8.688;2023-06-22T05:57:42;11.70;;;10.60;;
3747;SDS011;1889;50.058;8.688;2023-06-22T06:00:12;12.70;;;11.40;;
3747;SDS011;1889;50.058;8.688;2023-06-22T06:02:41;11.77;;;10.27;;
3747;SDS011;1889;50.058;8.688;2023-06-22T06:05:11;12.63;;;11.53;;
3747;SDS011;1889;50.058;8.688;2023-06-22T06:07:51;12.87;;;11.07;;
3747;SDS011;1889;50.058;8.688;2023-06-22T06:10:20;12.07;;;10.97;;
3747;SDS011;1889;50.058;8.688;2023-06-22T06:12:49;12.30;;;11.07;;
3747;SDS011;1889;50.058;8.688;2023-06-22T06:15:18;16.50;;;11.57;;
3747;SDS011;1889;50.058;8.688;2023-06-22T06:17:50;12.67;;;11.37;;
3747;SDS011;1889;50.058;8.688;2023-06-22T06:20:24;12.10;;;11.00;;
3747;SDS011;1889;50.058;8.688;2023-06-22T06:22:56;11.83;;;10.50;;
3747;SDS011;1889;50.058;8.688;2023-06-22T06:25:25;11.57;;;10.57;;
3747;SDS011;1889;50.058;8.688;2023-06-22T06:27:55;11.97;;;10.57;;
3747;SDS011;1889;50.058;8.688;2023-06-22T06:30:24;12.83;;;11.40;;
3747;SDS011;1889;50.058;8.688;2023-06-22T06:32:53;12.20;;;9.90;;
3747;SDS011;1889;50.058;8.688;2023-06-22T06:35:22;10.77;;;9.77;;
3747;SDS011;1889;50.058;8.688;2023-06-22T06:37:51;11.40;;;10.20;;
3747;SDS011;1889;50.058;8.688;2023-06-22T06:40:21;10.57;;;9.57;;
3747;SDS011;1889;50.058;8.688;2023-06-22T06:42:50;11.00;;;9.90;;
3747;SDS011;1889;50.058;8.688;2023-06-22T06:45:19;10.93;;;9.83;;
3747;SDS011;1889;50.058;8.688;2023-06-22T06:47:50;11.80;;;10.70;;
3747;SDS011;1889;50.058;8.688;2023-06-22T06:50:21;10.53;;;9.57;;
3747;SDS011;1889;50.058;8.688;2023-06-22T06:52:50;11.30;;;10.23;;
3747;SDS011;1889;50.058;8.688;2023-06-22T06:55:19;11.17;;;9.87;;
3747;SDS011;1889;50.058;8.688;2023-06-22T06:57:50;11.40;;;10.20;;
3747;SDS011;1889;50.058;8.688;2023-06-22T07:00:19;10.93;;;9.80;;
3747;SDS011;1889;50.058;8.688;2023-06-22T07:02:49;11.37;;;9.80;;
3747;SDS011;1889;50.058;8.688;2023-06-22T07:05:18;10.00;;;9.00;;
3747;SDS011;1889;50.058;8.688;2023-06-22T07:07:47;11.37;;;10.27;;
3747;SDS011;1889;50.058;8.688;2023-06-22T07:10:17;11.83;;;10.63;;
3747;SDS011;1889;50.058;8.688;2023-06-22T07:12:46;11.23;;;9.60;;
3747;SDS011;1889;50.058;8.688;2023-06-22T07:15:15;10.97;;;9.77;;
3747;SDS011;1889;50.058;8.688;2023-06-22T07:17:44;11.83;;;10.63;;
3747;SDS011;1889;50.058;8.688;2023-06-22T07:20:13;10.43;;;9.37;;
3747;SDS011;1889;50.058;8.688;2023-06-22T07:22:43;13.60;;;10.03;;
3747;SDS011;1889;50.058;8.688;2023-06-22T07:25:12;10.90;;;9.90;;
3747;SDS011;1889;50.058;8.688;2023-06-22T07:27:57;10.83;;;9.73;;
3747;SDS011;1889;50.058;8.688;2023-06-22T07:30:18;10.60;;;9.50;;
3747;SDS011;1889;50.058;8.688;2023-06-22T07:32:47;11.17;;;10.03;;
3747;SDS011;1889;50.058;8.688;2023-06-22T07:35:16;11.03;;;9.97;;
3747;SDS011;1889;50.058;8.688;2023-06-22T07:37:45;10.80;;;9.70;;
3747;SDS011;1889;50.058;8.688;2023-06-22T07:40:15;11.20;;;10.17;;
3747;SDS011;1889;50.058;8.688;2023-06-22T07:42:44;10.63;;;9.53;;
3747;SDS011;1889;50.058;8.688;2023-06-22T07:45:14;10.93;;;9.83;;
3747;SDS011;1889;50.058;8.688;2023-06-22T07:47:43;11.47;;;10.00;;
3747;SDS011;1889;50.058;8.688;2023-06-22T07:50:12;11.43;;;10.00;;
3747;SDS011;1889;50.058;8.688;2023-06-22T07:52:41;12.50;;;10.60;;
3747;SDS011;1889;50.058;8.688;2023-06-22T07:55:10;13.23;;;10.53;;
3747;SDS011;1889;50.058;8.688;2023-06-22T07:57:39;10.47;;;9.50;;
3747;SDS011;1889;50.058;8.688;2023-06-22T08:00:09;11.67;;;10.17;;
3747;SDS011;1889;50.058;8.688;2023-06-22T08:02:41;11.43;;;10.30;;
3747;SDS011;1889;50.058;8.688;2023-06-22T08:05:11;11.20;;;10.20;;
3747;SDS011;1889;50.058;8.688;2023-06-22T08:07:41;12.30;;;10.50;;
3747;SDS011;1889;50.058;8.688;2023-06-22T08:10:11;11.27;;;10.17;;
3747;SDS011;1889;50.058;8.688;2023-06-22T08:12:41;11.50;;;10.40;;
3747;SDS011;1889;50.058;8.688;2023-06-22T08:15:11;10.97;;;9.97;;
3747;SDS011;1889;50.058;8.688;2023-06-22T08:17:40;10.30;;;9.30;;
3747;SDS011;1889;50.058;8.688;2023-06-22T08:20:09;11.93;;;10.70;;
3747;SDS011;1889;50.058;8.688;2023-06-22T08:22:42;14.60;;;10.43;;
3747;SDS011;1889;50.058;8.688;2023-06-22T08:25:11;10.93;;;9.93;;
3747;SDS011;1889;50.058;8.688;2023-06-22T08:27:44;10.13;;;9.23;;
3747;SDS011;1889;50.058;8.688;2023-06-22T08:30:15;11.10;;;10.00;;
3747;SDS011;1889;50.058;8.688;2023-06-22T08:32:46;11.50;;;10.50;;
3747;SDS011;1889;50.058;8.688;2023-06-22T08:35:15;11.23;;;10.23;;
3747;SDS011;1889;50.058;8.688;2023-06-22T08:37:44;11.30;;;10.20;;
3747;SDS011;1889;50.058;8.688;2023-06-22T08:40:15;9.40;;;8.60;;
3747;SDS011;1889;50.058;8.688;2023-06-22T08:42:44;10.57;;;9.60;;
3747;SDS011;1889;50.058;8.688;2023-06-22T08:45:13;10.20;;;9.20;;
3747;SDS011;1889;50.058;8.688;2023-06-22T08:47:43;11.17;;;9.47;;
3747;SDS011;1889;50.058;8.688;2023-06-22T08:50:12;11.97;;;10.23;;
3747;SDS011;1889;50.058;8.688;2023-06-22T08:52:41;10.53;;;9.63;;
3747;SDS011;1889;50.058;8.688;2023-06-22T08:55:10;10.07;;;9.17;;
3747;SDS011;1889;50.058;8.688;2023-06-22T08:57:41;10.03;;;8.77;;
3747;SDS011;1889;50.058;8.688;2023-06-22T09:00:11;9.70;;;8.90;;
3747;SDS011;1889;50.058;8.688;2023-06-22T09:03:01;10.17;;;9.27;;
3747;SDS011;1889;50.058;8.688;2023-06-22T09:05:31;10.33;;;9.30;;
3747;SDS011;1889;50.058;8.688;2023-06-22T09:08:00;10.30;;;9.30;;
3747;SDS011;1889;50.058;8.688;2023-06-22T09:10:29;15.27;;;9.70;;
3747;SDS011;1889;50.058;8.688;2023-06-22T09:12:58;10.40;;;9.40;;
3747;SDS011;1889;50.058;8.688;2023-06-22T09:15:27;10.27;;;9.27;;
3747;SDS011;1889;50.058;8.688;2023-06-22T09:17:56;10.83;;;9.73;;
3747;SDS011;1889;50.058;8.688;2023-06-22T09:20:25;10.13;;;9.13;;
3747;SDS011;1889;50.058;8.688;2023-06-22T09:22:54;10.37;;;9.37;;
3747;SDS011;1889;50.058;8.688;2023-06-22T09:25:23;10.93;;;8.70;;
3747;SDS011;1889;50.058;8.688;2023-06-22T09:27:52;11.07;;;10.03;;
3747;SDS011;1889;50.058;8.688;2023-06-22T09:30:21;10.47;;;8.80;;
3747;SDS011;1889;50.058;8.688;2023-06-22T09:32:51;10.70;;;9.60;;
3747;SDS011;1889;50.058;8.688;2023-06-22T09:35:20;9.00;;;8.20;;
3747;SDS011;1889;50.058;8.688;2023-06-22T09:37:49;9.20;;;8.40;;
3747;SDS011;1889;50.058;8.688;2023-06-22T09:40:18;11.40;;;10.20;;
3747;SDS011;1889;50.058;8.688;2023-06-22T09:42:47;9.27;;;8.37;;
3747;SDS011;1889;50.058;8.688;2023-06-22T09:45:16;9.10;;;8.30;;
3747;SDS011;1889;50.058;8.688;2023-06-22T09:47:45;9.57;;;8.63;;
3747;SDS011;1889;50.058;8.688;2023-06-22T09:50:14;10.00;;;9.10;;
3747;SDS011;1889;50.058;8.688;2023-06-22T09:52:43;9.27;;;8.47;;
3747;SDS011;1889;50.058;8.688;2023-06-22T09:55:14;10.97;;;10.00;;
3747;SDS011;1889;50.058;8.688;2023-06-22T09:57:43;9.53;;;8.73;;
3747;SDS011;1889;50.058;8.688;2023-06-22T10:00:13;12.07;;;10.10;;
3747;SDS011;1889;50.058;8.688;2023-06-22T10:02:43;9.40;;;8.60;;
3747;SDS011;1889;50.058;8.688;2023-06-22T10:05:13;9.77;;;8.80;;
3747;SDS011;1889;50.058;8.688;2023-06-22T10:07:42;9.60;;;8.33;;
3747;SDS011;1889;50.058;8.688;2023-06-22T10:10:11;9.33;;;8.53;;
3747;SDS011;1889;50.058;8.688;2023-06-22T10:12:41;9.57;;;8.77;;
3747;SDS011;1889;50.058;8.688;2023-06-22T10:15:12;10.67;;;9.33;;
3747;SDS011;1889;50.058;8.688;2023-06-22T10:17:42;9.33;;;8.47;;
3747;SDS011;1889;50.058;8.688;2023-06-22T10:20:11;9.60;;;8.70;;
3747;SDS011;1889;50.058;8.688;2023-06-22T10:22:43;9.13;;;8.17;;
3747;SDS011;1889;50.058;8.688;2023-06-22T10:25:13;10.37;;;9.43;;
3747;SDS011;1889;50.058;8.688;2023-06-22T10:27:42;9.47;;;7.60;;
3747;SDS011;1889;50.058;8.688;2023-06-22T10:30:12;8.23;;;7.53;;
3747;SDS011;1889;50.058;8.688;2023-06-22T10:32:42;8.30;;;7.53;;
3747;SDS011;1889;50.058;8.688;2023-06-22T10:35:11;8.90;;;8.10;;
3747;SDS011;1889;50.058;8.688;2023-06-22T10:37:45;10.13;;;9.13;;
3747;SDS011;1889;50.058;8.688;2023-06-22T10:40:15;8.07;;;7.20;;
3747;SDS011;1889;50.058;8.688;2023-06-22T10:42:45;7.87;;;6.50;;
3747;SDS011;1889;50.058;8.688;2023-06-22T10:45:14;8.50;;;7.20;;
3747;SDS011;1889;50.058;8.688;2023-06-22T10:47:43;8.00;;;7.03;;
3747;SDS011;1889;50.058;8.688;2023-06-22T10:50:13;18.67;;;16.93;;
3747;SDS011;1889;50.058;8.688;2023-06-22T10:52:42;8.43;;;7.63;;
3747;SDS011;1889;50.058;8.688;2023-06-22T10:55:11;7.60;;;7.00;;
3747;SDS011;1889;50.058;8.688;2023-06-22T10:57:40;7.57;;;6.87;;
3747;SDS011;1889;50.058;8.688;2023-06-22T11:00:14;8.40;;;7.60;;
3747;SDS011;1889;50.058;8.688;2023-06-22T11:02:43;9.77;;;7.83;;
3747;SDS011;1889;50.058;8.688;2023-06-22T11:05:12;9.20;;;7.93;;
3747;SDS011;1889;50.058;8.688;2023-06-22T11:07:42;7.63;;;7.00;;
3747;SDS011;1889;50.058;8.688;2023-06-22T11:10:12;10.63;;;8.80;;
3747;SDS011;1889;50.058;8.688;2023-06-22T11:12:41;9.20;;;8.23;;
3747;SDS011;1889;50.058;8.688;2023-06-22T11:15:10;9.53;;;7.97;;
3747;SDS011;1889;50.058;8.688;2023-06-22T11:17:39;8.73;;;7.43;;
3747;SDS011;1889;50.058;8.688;2023-06-22T11:20:08;9.07;;;8.00;;
3747;SDS011;1889;50.058;8.688;2023-06-22T11:22:38;8.73;;;7.83;;
3747;SDS011;1889;50.058;8.688;2023-06-22T11:25:08;8.47;;;7.63;;
3747;SDS011;1889;50.058;8.688;2023-06-22T11:27:39;9.00;;;8.07;;
3747;SDS011;1889;50.058;8.688;2023-06-22T11:30:08;10.33;;;7.87;;
3747;SDS011;1889;50.058;8.688;2023-06-22T11:32:39;8.80;;;7.87;;
3747;SDS011;1889;50.058;8.688;2023-06-22T11:35:08;10.23;;;8.17;;
3747;SDS011;1889;50.058;8.688;2023-06-22T11:37:37;8.63;;;7.77;;
3747;SDS011;1889;50.058;8.688;2023-06-22T11:40:06;10.07;;;7.50;;
3747;SDS011;1889;50.058;8.688;2023-06-22T11:42:36;8.83;;;7.23;;
3747;SDS011;1889;50.058;8.688;2023-06-22T11:45:06;10.67;;;7.33;;
3747;SDS011;1889;50.058;8.688;2023-06-22T11:47:35;11.20;;;7.10;;
3747;SDS011;1889;50.058;8.688;2023-06-22T11:50:04;10.73;;;7.13;;
3747;SDS011;1889;50.058;8.688;2023-06-22T11:52:34;10.23;;;7.57;;
3747;SDS011;1889;50.058;8.688;2023-06-22T11:55:04;9.33;;;6.40;;
3747;SDS011;1889;50.058;8.688;2023-06-22T11:57:34;7.80;;;6.93;;
3747;SDS011;1889;50.058;8.688;2023-06-22T12:00:05;9.27;;;7.63;;
3747;SDS011;1889;50.058;8.688;2023-06-22T12:02:44;12.10;;;8.23;;
3747;SDS011;1889;50.058;8.688;2023-06-22T12:05:13;10.03;;;7.77;;
3747;SDS011;1889;50.058;8.688;2023-06-22T12:07:42;8.87;;;7.97;;
3747;SDS011;1889;50.058;8.688;2023-06-22T12:10:11;10.13;;;7.53;;
3747;SDS011;1889;50.058;8.688;2023-06-22T12:12:40;8.37;;;7.57;;
3747;SDS011;1889;50.058;8.688;2023-06-22T12:15:10;11.33;;;8.77;;
3747;SDS011;1889;50.058;8.688;2023-06-22T12:17:39;10.67;;;8.00;;
3747;SDS011;1889;50.058;8.688;2023-06-22T12:20:09;10.03;;;8.33;;
3747;SDS011;1889;50.058;8.688;2023-06-22T12:22:38;8.50;;;7.67;;
3747;SDS011;1889;50.058;8.688;2023-06-22T12:25:08;8.57;;;7.67;;
3747;SDS011;1889;50.058;8.688;2023-06-22T12:27:37;9.37;;;8.07;;
3747;SDS011;1889;50.058;8.688;2023-06-22T12:30:08;11.47;;;7.57;;
3747;SDS011;1889;50.058;8.688;2023-06-22T12:32:37;19.97;;;7.80;;
3747;SDS011;1889;50.058;8.688;2023-06-22T12:35:06;9.90;;;8.07;;
3747;SDS011;1889;50.058;8.688;2023-06-22T12:37:37;13.37;;;8.47;;
3747;SDS011;1889;50.058;8.688;2023-06-22T12:40:07;11.97;;;8.27;;
3747;SDS011;1889;50.058;8.688;2023-06-22T12:42:36;8.50;;;7.63;;
3747;SDS011;1889;50.058;8.688;2023-06-22T12:45:06;8.97;;;7.83;;
3747;SDS011;1889;50.058;8.688;2023-06-22T12:47:36;8.73;;;7.90;;
3747;SDS011;1889;50.058;8.688;2023-06-22T12:50:06;11.23;;;8.27;;
3747;SDS011;1889;50.058;8.688;2023-06-22T12:52:50;9.87;;;8.27;;
3747;SDS011;1889;50.058;8.688;2023-06-22T12:55:19;12.50;;;8.37;;
3747;SDS011;1889;50.058;8.688;2023-06-22T12:57:48;9.03;;;8.13;;
3747;SDS011;1889;50.058;8.688;2023-06-22T13:00:17;8.53;;;7.60;;
3747;SDS011;1889;50.058;8.688;2023-06-22T13:02:46;8.73;;;7.73;;
3747;SDS011;1889;50.058;8.688;2023-06-22T13:05:15;9.27;;;8.37;;
3747;SDS011;1889;50.058;8.688;2023-06-22T13:07:45;10.50;;;7.90;;
3747;SDS011;1889;50.058;8.688;2023-06-22T13:10:14;11.83;;;8.27;;
3747;SDS011;1889;50.058;8.688;2023-06-22T13:12:43;9.10;;;7.70;;
3747;SDS011;1889;50.058;8.688;2023-06-22T13:15:12;10.70;;;8.10;;
3747;SDS011;1889;50.058;8.688;2023-06-22T13:17:41;7.97;;;7.27;;
3747;SDS011;1889;50.058;8.688;2023-06-22T13:20:10;9.30;;;8.33;;
3747;SDS011;1889;50.058;8.688;2023-06-22T13:22:39;8.73;;;7.63;;
3747;SDS011;1889;50.058;8.688;2023-06-22T13:25:10;10.80;;;7.97;;
3747;SDS011;1889;50.058;8.688;2023-06-22T13:27:40;11.23;;;7.60;;
3747;SDS011;1889;50.058;8.688;2023-06-22T13:30:09;9.43;;;7.73;;
3747;SDS011;1889;50.058;8.688;2023-06-22T13:32:39;10.37;;;7.70;;
3747;SDS011;1889;50.058;8.688;2023-06-22T13:35:10;13.67;;;8.83;;
3747;SDS011;1889;50.058;8.688;2023-06-22T13:37:39;11.37;;;8.43;;
3747;SDS011;1889;50.058;8.688;2023-06-22T13:40:08;8.67;;;7.77;;
3747;SDS011;1889;50.058;8.688;2023-06-22T13:42:38;9.07;;;8.23;;
3747;SDS011;1889;50.058;8.688;2023-06-22T13:45:07;8.70;;;7.90;;
3747;SDS011;1889;50.058;8.688;2023-06-22T13:47:36;9.00;;;7.77;;
3747;SDS011;1889;50.058;8.688;2023-06-22T13:50:06;8.83;;;7.90;;
3747;SDS011;1889;50.058;8.688;2023-06-22T13:52:35;12.47;;;7.57;;
3747;SDS011;1889;50.058;8.688;2023-06-22T13:55:04;9.23;;;7.93;;
3747;SDS011;1889;50.058;8.688;2023-06-22T13:57:34;11.33;;;8.13;;
3747;SDS011;1889;50.058;8.688;2023-06-22T14:00:03;11.43;;;7.73;;
3747;SDS011;1889;50.058;8.688;2023-06-22T14:02:33;10.03;;;8.00;;
3747;SDS011;1889;50.058;8.688;2023-06-22T14:05:02;9.30;;;8.17;;
3747;SDS011;1889;50.058;8.688;2023-06-22T14:07:31;9.23;;;7.20;;
3747;SDS011;1889;50.058;8.688;2023-06-22T14:10:00;9.53;;;6.57;;
3747;SDS011;1889;50.058;8.688;2023-06-22T14:12:29;8.40;;;6.60;;
3747;SDS011;1889;50.058;8.688;2023-06-22T14:14:59;11.27;;;7.00;;
3747;SDS011;1889;50.058;8.688;2023-06-22T14:17:28;11.67;;;7.40;;
3747;SDS011;1889;50.058;8.688;2023-06-22T14:19:57;11.63;;;7.23;;
3747;SDS011;1889;50.058;8.688;2023-06-22T14:22:26;9.73;;;7.57;;
3747;SDS011;1889;50.058;8.688;2023-06-22T14:24:56;11.97;;;7.60;;
3747;SDS011;1889;50.058;8.688;2023-06-22T14:27:25;11.73;;;6.93;;
3747;SDS011;1889;50.058;8.688;2023-06-22T14:29:54;8.17;;;6.20;;
3747;SDS011;1889;50.058;8.688;2023-06-22T14:32:23;10.27;;;5.50;;
3747;SDS011;1889;50.058;8.688;2023-06-22T14:34:52;10.27;;;5.67;;
3747;SDS011;1889;50.058;8.688;2023-06-22T14:37:21;9.47;;;6.17;;
3747;SDS011;1889;50.058;8.688;2023-06-22T14:39:50;11.93;;;5.87;;
3747;SDS011;1889;50.058;8.688;2023-06-22T14:42:19;7.70;;;5.50;;
3747;SDS011;1889;50.058;8.688;2023-06-22T14:44:49;13.90;;;5.63;;
3747;SDS011;1889;50.058;8.688;2023-06-22T14:47:18;9.20;;;5.73;;
3747;SDS011;1889;50.058;8.688;2023-06-22T14:49:48;12.80;;;5.73;;
3747;SDS011;1889;50.058;8.688;2023-06-22T14:52:17;12.33;;;5.90;;
3747;SDS011;1889;50.058;8.688;2023-06-22T14:54:46;12.70;;;5.60;;
3747;SDS011;1889;50.058;8.688;2023-06-22T14:57:15;9.80;;;5.67;;
3747;SDS011;1889;50.058;8.688;2023-06-22T14:59:46;10.37;;;5.77;;
3747;SDS011;1889;50.058;8.688;2023-06-22T15:02:16;9.53;;;5.60;;
3747;SDS011;1889;50.058;8.688;2023-06-22T15:04:45;8.50;;;5.87;;
3747;SDS011;1889;50.058;8.688;2023-06-22T15:07:14;11.37;;;5.23;;
3747;SDS011;1889;50.058;8.688;2023-06-22T15:09:43;9.63;;;5.77;;
3747;SDS011;1889;50.058;8.688;2023-06-22T15:12:13;13.73;;;6.20;;
3747;SDS011;1889;50.058;8.688;2023-06-22T15:14:42;8.93;;;5.47;;
3747;SDS011;1889;50.058;8.688;2023-06-22T15:17:11;12.03;;;5.40;;
3747;SDS011;1889;50.058;8.688;2023-06-22T15:19:41;7.73;;;5.50;;
3747;SDS011;1889;50.058;8.688;2023-06-22T15:22:10;10.97;;;5.17;;